sensor_id;sensor_type;location;lat;lon;timestamp;pressure;altitude;pressure_sealevel;temperature;humidity
71567;BME280;59403;47.456;19.120;2023-03-01T00:00:09;101469.16;;;3.92;74.61
71567;BME280;59403;47.456;19.120;2023-03-01T00:02:36;101469.25;;;3.91;74.77
71567;BME280;59403;47.456;19.120;2023-03-01T00:05:04;101471.88;;;3.91;75.08
71567;BME280;59403;47.456;19.120;2023-03-01T00:07:32;101473.53;;;3.92;74.65
71567;BME280;59403;47.456;19.120;2023-03-01T00:09:59;101471.78;;;3.92;74.52
71567;BME280;59403;47.456;19.120;2023-03-01T00:12:26;101469.97;;;3.93;74.58
71567;BME280;59403;47.456;19.120;2023-03-01T00:14:53;101477.03;;;3.92;74.69
71567;BME280;59403;47.456;19.120;2023-03-01T00:17:20;101477.84;;;3.93;74.67
71567;BME280;59403;47.456;19.120;2023-03-01T00:19:46;101476.06;;;3.93;74.67
71567;BME280;59403;47.456;19.120;2023-03-01T00:22:13;101478.69;;;3.93;75.01
71567;BME280;59403;47.456;19.120;2023-03-01T00:24:41;101481.41;;;3.92;75.25
71567;BME280;59403;47.456;19.120;2023-03-01T00:27:08;101485.69;;;3.93;75.16
71567;BME280;59403;47.456;19.120;2023-03-01T00:29:35;101483.94;;;3.93;74.98
71567;BME280;59403;47.456;19.120;2023-03-01T00:32:02;101490.87;;;3.94;75.14
71567;BME280;59403;47.456;19.120;2023-03-01T00:34:29;101480.47;;;3.93;75.19
71567;BME280;59403;47.456;19.120;2023-03-01T00:36:56;101485.63;;;3.94;75.02
71567;BME280;59403;47.456;19.120;2023-03-01T00:39:30;101486.47;;;3.95;74.82
71567;BME280;59403;47.456;19.120;2023-03-01T00:41:59;101479.53;;;3.94;74.85
71567;BME280;59403;47.456;19.120;2023-03-01T00:44:26;101487.31;;;3.95;75.08
71567;BME280;59403;47.456;19.120;2023-03-01T00:46:53;101491.69;;;3.95;74.75
71567;BME280;59403;47.456;19.120;2023-03-01T00:49:20;101484.78;;;3.94;74.91
71567;BME280;59403;47.456;19.120;2023-03-01T00:51:49;101478.59;;;3.95;74.80
71567;BME280;59403;47.456;19.120;2023-03-01T00:54:16;101485.63;;;3.94;74.97
71567;BME280;59403;47.456;19.120;2023-03-01T00:56:43;101483.03;;;3.94;75.07
71567;BME280;59403;47.456;19.120;2023-03-01T00:59:11;101484.78;;;3.94;75.16
71567;BME280;59403;47.456;19.120;2023-03-01T01:01:39;101483.03;;;3.94;74.91
71567;BME280;59403;47.456;19.120;2023-03-01T01:04:07;101483.94;;;3.93;74.99
71567;BME280;59403;47.456;19.120;2023-03-01T01:06:36;101478.78;;;3.92;75.21
71567;BME280;59403;47.456;19.120;2023-03-01T01:09:05;101480.41;;;3.94;75.14
71567;BME280;59403;47.456;19.120;2023-03-01T01:11:32;101477.78;;;3.94;75.31
71567;BME280;59403;47.456;19.120;2023-03-01T01:14:00;101474.22;;;3.95;75.41
71567;BME280;59403;47.456;19.120;2023-03-01T01:16:29;101463.72;;;3.95;75.75
71567;BME280;59403;47.456;19.120;2023-03-01T01:18:57;101453.25;;;3.95;76.05
71567;BME280;59403;47.456;19.120;2023-03-01T01:21:24;101452.50;;;3.93;75.80
71567;BME280;59403;47.456;19.120;2023-03-01T01:23:52;101441.91;;;3.95;75.47
71567;BME280;59403;47.456;19.120;2023-03-01T01:26:21;101443.63;;;3.96;75.23
71567;BME280;59403;47.456;19.120;2023-03-01T01:28:48;101446.25;;;3.96;75.14
71567;BME280;59403;47.456;19.120;2023-03-01T01:31:15;101442.84;;;3.94;75.17
71567;BME280;59403;47.456;19.120;2023-03-01T01:33:44;101439.28;;;3.95;75.17
71567;BME280;59403;47.456;19.120;2023-03-01T01:36:12;101451.56;;;3.94;75.27
71567;BME280;59403;47.456;19.120;2023-03-01T01:38:39;101447.16;;;3.95;74.94
71567;BME280;59403;47.456;19.120;2023-03-01T01:41:07;101446.25;;;3.96;74.71
71567;BME280;59403;47.456;19.120;2023-03-01T01:43:38;101439.19;;;3.96;74.83
71567;BME280;59403;47.456;19.120;2023-03-01T01:46:14;101434.81;;;3.97;74.77
71567;BME280;59403;47.456;19.120;2023-03-01T01:48:47;101424.44;;;3.95;75.33
71567;BME280;59403;47.456;19.120;2023-03-01T01:51:18;101425.28;;;3.96;75.25
71567;BME280;59403;47.456;19.120;2023-03-01T01:53:49;101423.47;;;3.96;75.26
71567;BME280;59403;47.456;19.120;2023-03-01T01:56:18;101423.56;;;3.95;75.48
71567;BME280;59403;47.456;19.120;2023-03-01T01:58:46;101416.66;;;3.94;75.59
71567;BME280;59403;47.456;19.120;2023-03-01T02:04:07;101417.50;;;3.94;75.21
71567;BME280;59403;47.456;19.120;2023-03-01T02:06:39;101411.41;;;3.94;75.30
71567;BME280;59403;47.456;19.120;2023-03-01T02:09:13;101410.56;;;3.93;75.23
71567;BME280;59403;47.456;19.120;2023-03-01T02:11:42;101409.66;;;3.94;75.45
71567;BME280;59403;47.456;19.120;2023-03-01T02:14:10;101410.47;;;3.95;75.09
71567;BME280;59403;47.456;19.120;2023-03-01T02:16:37;101413.09;;;3.95;75.44
71567;BME280;59403;47.456;19.120;2023-03-01T02:19:07;101410.66;;;3.92;76.23
71567;BME280;59403;47.456;19.120;2023-03-01T02:21:46;101416.00;;;3.90;76.85
71567;BME280;59403;47.456;19.120;2023-03-01T02:24:24;101414.28;;;3.89;78.21
71567;BME280;59403;47.456;19.120;2023-03-01T02:26:57;101410.19;;;3.85;79.66
71567;BME280;59403;47.456;19.120;2023-03-01T02:29:27;101402.41;;;3.84;80.21
71567;BME280;59403;47.456;19.120;2023-03-01T02:31:56;101397.28;;;3.82;80.90
71567;BME280;59403;47.456;19.120;2023-03-01T02:34:25;101402.56;;;3.81;81.45
71567;BME280;59403;47.456;19.120;2023-03-01T02:36:55;101396.59;;;3.79;81.66
71567;BME280;59403;47.456;19.120;2023-03-01T02:39:26;101395.66;;;3.80;82.29
71567;BME280;59403;47.456;19.120;2023-03-01T02:41:56;101396.59;;;3.79;81.77
71567;BME280;59403;47.456;19.120;2023-03-01T02:44:25;101386.94;;;3.79;81.83
71567;BME280;59403;47.456;19.120;2023-03-01T02:46:55;101389.66;;;3.78;82.92
71567;BME280;59403;47.456;19.120;2023-03-01T02:49:26;101387.03;;;3.78;81.64
71567;BME280;59403;47.456;19.120;2023-03-01T02:52:05;101375.72;;;3.77;81.94
71567;BME280;59403;47.456;19.120;2023-03-01T02:54:40;101378.44;;;3.76;82.53
71567;BME280;59403;47.456;19.120;2023-03-01T02:57:09;101383.66;;;3.76;82.99
71567;BME280;59403;47.456;19.120;2023-03-01T02:59:38;101379.37;;;3.75;83.50
71567;BME280;59403;47.456;19.120;2023-03-01T03:02:17;101382.84;;;3.75;83.34
71567;BME280;59403;47.456;19.120;2023-03-01T03:04:46;101386.28;;;3.76;82.82
71567;BME280;59403;47.456;19.120;2023-03-01T03:07:13;101375.72;;;3.77;82.18
71567;BME280;59403;47.456;19.120;2023-03-01T03:09:40;101386.19;;;3.77;83.14
71567;BME280;59403;47.456;19.120;2023-03-01T03:12:07;101384.41;;;3.78;82.56
71567;BME280;59403;47.456;19.120;2023-03-01T03:14:34;101385.19;;;3.80;83.10
71567;BME280;59403;47.456;19.120;2023-03-01T03:17:02;101379.94;;;3.80;82.94
71567;BME280;59403;47.456;19.120;2023-03-01T03:19:32;101378.19;;;3.80;83.34
71567;BME280;59403;47.456;19.120;2023-03-01T03:21:58;101375.56;;;3.80;83.01
71567;BME280;59403;47.456;19.120;2023-03-01T03:24:25;101369.56;;;3.78;82.80
71567;BME280;59403;47.456;19.120;2023-03-01T03:26:52;101368.69;;;3.78;83.67
71567;BME280;59403;47.456;19.120;2023-03-01T03:29:19;101365.41;;;3.74;83.24
71567;BME280;59403;47.456;19.120;2023-03-01T03:31:46;101361.94;;;3.74;83.22
71567;BME280;59403;47.456;19.120;2023-03-01T03:34:14;101366.47;;;3.72;82.85
71567;BME280;59403;47.456;19.120;2023-03-01T03:36:43;101365.59;;;3.71;83.13
71567;BME280;59403;47.456;19.120;2023-03-01T03:39:10;101369.91;;;3.72;82.60
71567;BME280;59403;47.456;19.120;2023-03-01T03:41:37;101373.38;;;3.73;82.54
71567;BME280;59403;47.456;19.120;2023-03-01T03:44:04;101376.75;;;3.75;82.29
71567;BME280;59403;47.456;19.120;2023-03-01T03:46:30;101374.12;;;3.75;82.46
71567;BME280;59403;47.456;19.120;2023-03-01T03:48:57;101370.66;;;3.74;81.36
71567;BME280;59403;47.456;19.120;2023-03-01T03:51:26;101371.59;;;3.73;81.14
71567;BME280;59403;47.456;19.120;2023-03-01T03:53:53;101368.13;;;3.73;81.49
71567;BME280;59403;47.456;19.120;2023-03-01T03:56:19;101369.91;;;3.72;81.18
71567;BME280;59403;47.456;19.120;2023-03-01T03:58:51;101368.22;;;3.71;80.94
71567;BME280;59403;47.456;19.120;2023-03-01T04:01:18;101367.28;;;3.72;81.14
71567;BME280;59403;47.456;19.120;2023-03-01T04:03:45;101375.13;;;3.72;81.14
71567;BME280;59403;47.456;19.120;2023-03-01T04:06:13;101366.47;;;3.72;81.17
71567;BME280;59403;47.456;19.120;2023-03-01T04:08:41;101371.75;;;3.70;80.78
71567;BME280;59403;47.456;19.120;2023-03-01T04:11:08;101363.91;;;3.70;80.80
71567;BME280;59403;47.456;19.120;2023-03-01T04:13:54;101366.47;;;3.72;80.95
71567;BME280;59403;47.456;19.120;2023-03-01T04:16:21;101368.31;;;3.70;80.80
71567;BME280;59403;47.456;19.120;2023-03-01T04:18:48;101363.91;;;3.70;80.97
71567;BME280;59403;47.456;19.120;2023-03-01T04:21:15;101357.09;;;3.68;80.93
71567;BME280;59403;47.456;19.120;2023-03-01T04:23:43;101356.22;;;3.67;81.09
71567;BME280;59403;47.456;19.120;2023-03-01T04:26:10;101369.31;;;3.67;81.17
71567;BME280;59403;47.456;19.120;2023-03-01T04:28:39;101367.66;;;3.66;81.14
71567;BME280;59403;47.456;19.120;2023-03-01T04:31:10;101372.91;;;3.66;81.22
71567;BME280;59403;47.456;19.120;2023-03-01T04:33:39;101380.84;;;3.65;81.82
71567;BME280;59403;47.456;19.120;2023-03-01T04:36:08;101377.28;;;3.66;81.66
71567;BME280;59403;47.456;19.120;2023-03-01T04:38:35;101372.03;;;3.66;81.93
71567;BME280;59403;47.456;19.120;2023-03-01T04:41:05;101370.38;;;3.65;81.63
71567;BME280;59403;47.456;19.120;2023-03-01T04:43:33;101369.41;;;3.66;81.65
71567;BME280;59403;47.456;19.120;2023-03-01T04:46:01;101368.56;;;3.65;82.11
71567;BME280;59403;47.456;19.120;2023-03-01T04:48:30;101364.19;;;3.66;81.71
71567;BME280;59403;47.456;19.120;2023-03-01T04:50:58;101358.19;;;3.64;82.62
71567;BME280;59403;47.456;19.120;2023-03-01T04:53:25;101358.19;;;3.64;82.08
71567;BME280;59403;47.456;19.120;2023-03-01T04:55:53;101365.22;;;3.63;82.79
71567;BME280;59403;47.456;19.120;2023-03-01T04:58:22;101359.13;;;3.63;82.30
71567;BME280;59403;47.456;19.120;2023-03-01T05:00:49;101354.81;;;3.62;82.10
71567;BME280;59403;47.456;19.120;2023-03-01T05:03:16;101359.22;;;3.61;82.46
71567;BME280;59403;47.456;19.120;2023-03-01T05:05:44;101353.13;;;3.61;82.32
71567;BME280;59403;47.456;19.120;2023-03-01T05:08:12;101356.59;;;3.61;82.17
71567;BME280;59403;47.456;19.120;2023-03-01T05:10:43;101354.00;;;3.61;82.32
71567;BME280;59403;47.456;19.120;2023-03-01T05:13:12;101351.38;;;3.61;82.25
71567;BME280;59403;47.456;19.120;2023-03-01T05:15:41;101357.44;;;3.62;82.57
71567;BME280;59403;47.456;19.120;2023-03-01T05:18:08;101353.22;;;3.59;82.56
71567;BME280;59403;47.456;19.120;2023-03-01T05:20:37;101354.91;;;3.60;82.79
71567;BME280;59403;47.456;19.120;2023-03-01T05:23:04;101357.53;;;3.60;82.46
71567;BME280;59403;47.456;19.120;2023-03-01T05:25:33;101359.31;;;3.60;82.23
71567;BME280;59403;47.456;19.120;2023-03-01T05:28:06;101362.66;;;3.62;82.31
71567;BME280;59403;47.456;19.120;2023-03-01T05:30:35;101355.66;;;3.62;82.27
71567;BME280;59403;47.456;19.120;2023-03-01T05:33:08;101353.91;;;3.63;82.48
71567;BME280;59403;47.456;19.120;2023-03-01T05:35:39;101360.81;;;3.64;82.46
71567;BME280;59403;47.456;19.120;2023-03-01T05:38:07;101357.28;;;3.65;82.37
71567;BME280;59403;47.456;19.120;2023-03-01T05:40:34;101363.25;;;3.67;82.40
71567;BME280;59403;47.456;19.120;2023-03-01T05:43:02;101367.47;;;3.69;82.08
71567;BME280;59403;47.456;19.120;2023-03-01T05:45:31;101362.22;;;3.69;82.28
71567;BME280;59403;47.456;19.120;2023-03-01T05:47:59;101354.38;;;3.69;82.43
71567;BME280;59403;47.456;19.120;2023-03-01T05:50:28;101362.13;;;3.71;82.42
71567;BME280;59403;47.456;19.120;2023-03-01T05:52:59;101364.56;;;3.74;82.10
71567;BME280;59403;47.456;19.120;2023-03-01T05:55:28;101369.81;;;3.74;82.47
71567;BME280;59403;47.456;19.120;2023-03-01T05:57:55;101367.84;;;3.77;82.26
71567;BME280;59403;47.456;19.120;2023-03-01T06:00:24;101355.03;;;3.73;82.18
71567;BME280;59403;47.456;19.120;2023-03-01T06:02:52;101375.56;;;3.80;81.57
71567;BME280;59403;47.456;19.120;2023-03-01T06:05:19;101377.13;;;3.83;81.12
71567;BME280;59403;47.456;19.120;2023-03-01T06:07:48;101377.69;;;3.88;81.00
71567;BME280;59403;47.456;19.120;2023-03-01T06:10:15;101380.41;;;3.86;81.20
71567;BME280;59403;47.456;19.120;2023-03-01T06:12:43;101377.78;;;3.86;81.22
71567;BME280;59403;47.456;19.120;2023-03-01T06:15:12;101377.69;;;3.88;81.17
71567;BME280;59403;47.456;19.120;2023-03-01T06:17:42;101387.25;;;3.89;81.02
71567;BME280;59403;47.456;19.120;2023-03-01T06:20:12;101379.41;;;3.89;81.46
71567;BME280;59403;47.456;19.120;2023-03-01T06:22:40;101384.56;;;3.90;81.56
71567;BME280;59403;47.456;19.120;2023-03-01T06:25:09;101374.72;;;3.94;80.96
71567;BME280;59403;47.456;19.120;2023-03-01T06:27:38;101375.50;;;3.96;81.03
71567;BME280;59403;47.456;19.120;2023-03-01T06:30:06;101378.78;;;3.99;80.77
71567;BME280;59403;47.456;19.120;2023-03-01T06:32:33;101372.59;;;4.00;80.59
71567;BME280;59403;47.456;19.120;2023-03-01T06:35:00;101384.69;;;4.03;80.58
71567;BME280;59403;47.456;19.120;2023-03-01T06:37:27;101384.69;;;4.03;80.19
71567;BME280;59403;47.456;19.120;2023-03-01T06:39:54;101403.03;;;4.03;80.32
71567;BME280;59403;47.456;19.120;2023-03-01T06:42:22;101405.44;;;4.06;79.87
71567;BME280;59403;47.456;19.120;2023-03-01T06:44:49;101409.75;;;4.07;79.75
71567;BME280;59403;47.456;19.120;2023-03-01T06:47:16;101406.97;;;4.10;80.03
71567;BME280;59403;47.456;19.120;2023-03-01T06:49:43;101405.06;;;4.12;80.10
71567;BME280;59403;47.456;19.120;2023-03-01T06:52:09;101409.31;;;4.14;80.20
71567;BME280;59403;47.456;19.120;2023-03-01T06:54:36;101402.44;;;4.12;79.76
71567;BME280;59403;47.456;19.120;2023-03-01T06:57:03;101404.06;;;4.14;79.55
71567;BME280;59403;47.456;19.120;2023-03-01T06:59:31;101400.69;;;4.12;78.97
71567;BME280;59403;47.456;19.120;2023-03-01T07:01:58;101402.19;;;4.16;79.23
71567;BME280;59403;47.456;19.120;2023-03-01T07:04:25;101399.47;;;4.18;78.57
71567;BME280;59403;47.456;19.120;2023-03-01T07:06:53;101401.09;;;4.20;78.69
71567;BME280;59403;47.456;19.120;2023-03-01T07:09:21;101399.13;;;4.24;78.45
71567;BME280;59403;47.456;19.120;2023-03-01T07:11:48;101392.72;;;4.28;78.24
71567;BME280;59403;47.456;19.120;2023-03-01T07:14:15;101395.25;;;4.29;78.32
71567;BME280;59403;47.456;19.120;2023-03-01T07:16:43;101399.50;;;4.32;77.90
71567;BME280;59403;47.456;19.120;2023-03-01T07:19:10;101393.19;;;4.34;77.77
71567;BME280;59403;47.456;19.120;2023-03-01T07:21:37;101392.19;;;4.37;77.59
71567;BME280;59403;47.456;19.120;2023-03-01T07:24:05;101391.06;;;4.41;77.62
71567;BME280;59403;47.456;19.120;2023-03-01T07:26:32;101387.13;;;4.48;77.96
71567;BME280;59403;47.456;19.120;2023-03-01T07:28:59;101395.81;;;4.48;76.82
71567;BME280;59403;47.456;19.120;2023-03-01T07:31:26;101401.00;;;4.50;76.66
71567;BME280;59403;47.456;19.120;2023-03-01T07:33:55;101392.09;;;4.52;76.67
71567;BME280;59403;47.456;19.120;2023-03-01T07:36:22;101393.50;;;4.58;76.58
71567;BME280;59403;47.456;19.120;2023-03-01T07:38:49;101389.81;;;4.60;76.52
71567;BME280;59403;47.456;19.120;2023-03-01T07:41:16;101395.56;;;4.67;76.07
71567;BME280;59403;47.456;19.120;2023-03-01T07:43:43;101395.38;;;4.70;76.21
71567;BME280;59403;47.456;19.120;2023-03-01T07:46:10;101396.03;;;4.74;75.97
71567;BME280;59403;47.456;19.120;2023-03-01T07:48:37;101401.91;;;4.77;75.39
71567;BME280;59403;47.456;19.120;2023-03-01T07:51:07;101395.56;;;4.81;75.24
71567;BME280;59403;47.456;19.120;2023-03-01T07:53:34;101395.25;;;4.86;75.10
71567;BME280;59403;47.456;19.120;2023-03-01T07:56:02;101386.91;;;4.93;74.73
71567;BME280;59403;47.456;19.120;2023-03-01T07:58:30;101389.53;;;4.93;74.41
71567;BME280;59403;47.456;19.120;2023-03-01T08:01:01;101388.03;;;4.89;74.11
71567;BME280;59403;47.456;19.120;2023-03-01T08:03:27;101386.16;;;4.91;74.45
71567;BME280;59403;47.456;19.120;2023-03-01T08:05:54;101384.41;;;5.04;74.16
71567;BME280;59403;47.456;19.120;2023-03-01T08:08:23;101377.94;;;5.10;73.71
71567;BME280;59403;47.456;19.120;2023-03-01T08:10:50;101382.44;;;5.08;73.87
71567;BME280;59403;47.456;19.120;2023-03-01T08:13:16;101382.06;;;5.14;73.78
71567;BME280;59403;47.456;19.120;2023-03-01T08:15:47;101376.50;;;5.18;73.11
71567;BME280;59403;47.456;19.120;2023-03-01T08:18:14;101373.19;;;5.29;73.00
71567;BME280;59403;47.456;19.120;2023-03-01T08:20:41;101378.00;;;5.49;73.34
71567;BME280;59403;47.456;19.120;2023-03-01T08:23:08;101375.50;;;5.60;72.84
71567;BME280;59403;47.456;19.120;2023-03-01T08:25:37;101344.66;;;5.49;71.93
71567;BME280;59403;47.456;19.120;2023-03-01T08:28:05;101366.97;;;5.56;72.02
71567;BME280;59403;47.456;19.120;2023-03-01T08:30:32;101376.03;;;5.65;72.09
71567;BME280;59403;47.456;19.120;2023-03-01T08:32:59;101347.12;;;5.52;72.18
71567;BME280;59403;47.456;19.120;2023-03-01T08:35:26;101357.25;;;5.71;72.04
71567;BME280;59403;47.456;19.120;2023-03-01T08:37:53;101359.44;;;5.77;71.61
71567;BME280;59403;47.456;19.120;2023-03-01T08:40:19;101361.09;;;5.92;71.54
71567;BME280;59403;47.456;19.120;2023-03-01T08:42:48;101360.75;;;5.97;71.26
71567;BME280;59403;47.456;19.120;2023-03-01T08:45:15;101357.31;;;5.84;71.41
71567;BME280;59403;47.456;19.120;2023-03-01T08:47:44;101353.00;;;5.95;70.91
71567;BME280;59403;47.456;19.120;2023-03-01T08:50:11;101352.66;;;6.00;70.83
71567;BME280;59403;47.456;19.120;2023-03-01T08:52:38;101353.41;;;6.14;70.39
71567;BME280;59403;47.456;19.120;2023-03-01T08:55:06;101338.37;;;6.29;70.54
71567;BME280;59403;47.456;19.120;2023-03-01T08:57:33;101335.53;;;6.32;69.92
71567;BME280;59403;47.456;19.120;2023-03-01T09:00:02;101337.19;;;6.45;70.26
71567;BME280;59403;47.456;19.120;2023-03-01T09:02:34;101330.78;;;6.49;68.88
71567;BME280;59403;47.456;19.120;2023-03-01T09:05:00;101335.91;;;6.51;69.16
71567;BME280;59403;47.456;19.120;2023-03-01T09:07:27;101333.19;;;6.52;70.14
71567;BME280;59403;47.456;19.120;2023-03-01T09:09:54;101339.81;;;6.58;67.67
71567;BME280;59403;47.456;19.120;2023-03-01T09:12:21;101332.31;;;6.64;68.25
71567;BME280;59403;47.456;19.120;2023-03-01T09:14:50;101322.78;;;6.74;68.23
71567;BME280;59403;47.456;19.120;2023-03-01T09:17:18;101330.41;;;6.66;67.96
71567;BME280;59403;47.456;19.120;2023-03-01T09:19:46;101330.06;;;6.71;67.20
71567;BME280;59403;47.456;19.120;2023-03-01T09:24:39;101313.75;;;7.02;66.91
71567;BME280;59403;47.456;19.120;2023-03-01T09:27:06;101304.59;;;6.95;66.54
71567;BME280;59403;47.456;19.120;2023-03-01T09:29:34;101303.91;;;6.93;65.86
71567;BME280;59403;47.456;19.120;2023-03-01T09:32:01;101308.56;;;6.89;66.11
71567;BME280;59403;47.456;19.120;2023-03-01T09:34:30;101304.06;;;7.03;65.94
71567;BME280;59403;47.456;19.120;2023-03-01T09:37:17;101295.69;;;7.32;65.53
71567;BME280;59403;47.456;19.120;2023-03-01T09:39:47;101292.25;;;7.43;65.32
71567;BME280;59403;47.456;19.120;2023-03-01T09:42:14;101287.13;;;7.52;64.63
71567;BME280;59403;47.456;19.120;2023-03-01T09:44:45;101290.84;;;7.50;64.56
71567;BME280;59403;47.456;19.120;2023-03-01T09:47:18;101280.91;;;7.53;64.25
71567;BME280;59403;47.456;19.120;2023-03-01T09:49:53;101285.00;;;7.68;64.33
71567;BME280;59403;47.456;19.120;2023-03-01T09:54:54;101271.37;;;7.85;62.73
71567;BME280;59403;47.456;19.120;2023-03-01T09:57:28;101272.13;;;7.98;62.65
71567;BME280;59403;47.456;19.120;2023-03-01T10:00:07;101273.09;;;8.31;62.72
71567;BME280;59403;47.456;19.120;2023-03-01T10:02:41;101267.69;;;8.43;62.35
71567;BME280;59403;47.456;19.120;2023-03-01T10:05:27;101278.28;;;8.32;61.77
71567;BME280;59403;47.456;19.120;2023-03-01T10:08:11;101273.91;;;8.53;62.10
71567;BME280;59403;47.456;19.120;2023-03-01T10:10:44;101270.19;;;8.45;62.36
71567;BME280;59403;47.456;19.120;2023-03-01T10:13:16;101251.59;;;8.46;61.41
71567;BME280;59403;47.456;19.120;2023-03-01T10:15:50;101253.28;;;8.47;60.77
71567;BME280;59403;47.456;19.120;2023-03-01T10:18:23;101254.37;;;8.45;61.07
71567;BME280;59403;47.456;19.120;2023-03-01T10:20:58;101245.56;;;8.66;60.73
71567;BME280;59403;47.456;19.120;2023-03-01T10:23:27;101243.00;;;8.76;60.68
71567;BME280;59403;47.456;19.120;2023-03-01T10:26:17;101238.03;;;8.93;60.64
71567;BME280;59403;47.456;19.120;2023-03-01T10:28:57;101234.63;;;9.02;59.20
71567;BME280;59403;47.456;19.120;2023-03-01T10:31:27;101237.28;;;9.02;58.29
71567;BME280;59403;47.456;19.120;2023-03-01T10:34:02;101231.25;;;9.11;59.06
71567;BME280;59403;47.456;19.120;2023-03-01T10:36:33;101223.50;;;9.40;58.00
71567;BME280;59403;47.456;19.120;2023-03-01T10:39:12;101220.09;;;9.29;56.92
71567;BME280;59403;47.456;19.120;2023-03-01T10:41:52;101216.56;;;9.39;57.29
71567;BME280;59403;47.456;19.120;2023-03-01T10:44:38;101213.59;;;9.33;57.17
71567;BME280;59403;47.456;19.120;2023-03-01T10:47:13;101205.59;;;9.44;56.80
71567;BME280;59403;47.456;19.120;2023-03-01T10:49:52;101204.53;;;9.56;56.58
71567;BME280;59403;47.456;19.120;2023-03-01T10:52:23;101195.03;;;9.74;56.71
71567;BME280;59403;47.456;19.120;2023-03-01T10:54:52;101195.66;;;9.87;56.08
71567;BME280;59403;47.456;19.120;2023-03-01T10:57:31;101187.31;;;9.91;56.03
71567;BME280;59403;47.456;19.120;2023-03-01T11:00:17;101180.75;;;10.16;56.55
71567;BME280;59403;47.456;19.120;2023-03-01T11:02:48;101178.94;;;10.16;55.14
71567;BME280;59403;47.456;19.120;2023-03-01T11:05:22;101175.75;;;10.22;54.21
71567;BME280;59403;47.456;19.120;2023-03-01T11:07:53;101174.19;;;10.20;54.78
71567;BME280;59403;47.456;19.120;2023-03-01T11:10:22;101188.06;;;10.43;54.59
71567;BME280;59403;47.456;19.120;2023-03-01T11:12:51;101167.72;;;10.34;55.91
71567;BME280;59403;47.456;19.120;2023-03-01T11:15:24;101177.47;;;10.33;55.10
71567;BME280;59403;47.456;19.120;2023-03-01T11:17:52;101173.00;;;10.43;55.20
71567;BME280;59403;47.456;19.120;2023-03-01T11:20:25;101164.88;;;10.25;55.29
71567;BME280;59403;47.456;19.120;2023-03-01T11:22:57;101161.53;;;10.14;55.97
71567;BME280;59403;47.456;19.120;2023-03-01T11:25:27;101157.66;;;10.27;56.23
71567;BME280;59403;47.456;19.120;2023-03-01T11:27:57;101162.66;;;10.30;56.36
71567;BME280;59403;47.456;19.120;2023-03-01T11:30:29;101160.16;;;10.19;55.47
71567;BME280;59403;47.456;19.120;2023-03-01T11:33:05;101165.03;;;10.14;55.93
71567;BME280;59403;47.456;19.120;2023-03-01T11:35:41;101151.16;;;10.01;55.61
71567;BME280;59403;47.456;19.120;2023-03-01T11:38:28;101153.28;;;10.07;56.47
71567;BME280;59403;47.456;19.120;2023-03-01T11:41:02;101153.78;;;10.01;56.00
71567;BME280;59403;47.456;19.120;2023-03-01T11:43:37;101149.84;;;9.86;56.81
71567;BME280;59403;47.456;19.120;2023-03-01T11:46:40;101158.50;;;9.88;57.61
71567;BME280;59403;47.456;19.120;2023-03-01T11:49:31;101147.28;;;9.66;57.50
71567;BME280;59403;47.456;19.120;2023-03-01T11:52:08;101145.50;;;9.76;57.12
71567;BME280;59403;47.456;19.120;2023-03-01T11:54:50;101144.00;;;9.83;57.73
71567;BME280;59403;47.456;19.120;2023-03-01T11:57:40;101139.16;;;9.97;57.07
71567;BME280;59403;47.456;19.120;2023-03-01T12:00:25;101143.34;;;10.00;57.31
71567;BME280;59403;47.456;19.120;2023-03-01T12:03:20;101137.91;;;10.01;57.89
71567;BME280;59403;47.456;19.120;2023-03-01T12:08:43;101133.59;;;10.00;57.63
71567;BME280;59403;47.456;19.120;2023-03-01T12:11:22;101134.41;;;9.91;57.85
71567;BME280;59403;47.456;19.120;2023-03-01T12:14:09;101125.25;;;10.05;57.24
71567;BME280;59403;47.456;19.120;2023-03-01T12:16:56;101129.44;;;10.07;56.76
71567;BME280;59403;47.456;19.120;2023-03-01T12:19:45;101122.22;;;10.09;57.54
71567;BME280;59403;47.456;19.120;2023-03-01T12:22:31;101115.00;;;10.21;56.68
71567;BME280;59403;47.456;19.120;2023-03-01T12:25:18;101108.88;;;10.20;57.23
71567;BME280;59403;47.456;19.120;2023-03-01T12:28:01;101103.72;;;10.19;56.79
71567;BME280;59403;47.456;19.120;2023-03-01T12:30:42;101104.00;;;10.25;55.72
71567;BME280;59403;47.456;19.120;2023-03-01T12:33:19;101097.34;;;10.41;55.28
71567;BME280;59403;47.456;19.120;2023-03-01T12:36:10;101102.19;;;10.55;54.53
71567;BME280;59403;47.456;19.120;2023-03-01T12:38:42;101095.53;;;10.51;54.92
71567;BME280;59403;47.456;19.120;2023-03-01T12:41:35;101087.87;;;10.48;55.16
71567;BME280;59403;47.456;19.120;2023-03-01T12:44:21;101099.44;;;10.56;54.41
71567;BME280;59403;47.456;19.120;2023-03-01T12:47:12;101088.84;;;10.37;54.63
71567;BME280;59403;47.456;19.120;2023-03-01T12:49:45;101076.72;;;10.35;55.89
71567;BME280;59403;47.456;19.120;2023-03-01T12:52:19;101079.38;;;10.44;55.59
71567;BME280;59403;47.456;19.120;2023-03-01T12:54:49;101076.03;;;10.42;56.07
71567;BME280;59403;47.456;19.120;2023-03-01T12:57:29;101082.28;;;10.32;56.82
71567;BME280;59403;47.456;19.120;2023-03-01T13:00:17;101078.13;;;10.39;56.89
71567;BME280;59403;47.456;19.120;2023-03-01T13:02:50;101079.09;;;10.47;57.51
71567;BME280;59403;47.456;19.120;2023-03-01T13:05:34;101071.84;;;10.30;56.84
71567;BME280;59403;47.456;19.120;2023-03-01T13:08:14;101074.06;;;10.35;57.03
71567;BME280;59403;47.456;19.120;2023-03-01T13:10:46;101078.91;;;10.20;57.54
71567;BME280;59403;47.456;19.120;2023-03-01T13:13:20;101063.87;;;10.11;57.59
71567;BME280;59403;47.456;19.120;2023-03-01T13:15:49;101063.41;;;9.96;58.16